sensor_id;sensor_type;location;lat;lon;timestamp;pressure;altitude;pressure_sealevel;temperature;humidity
51928;BME280;37953;52.806;18.270;2024-03-02T00:00:02;100145.25;;;10.06;100.00
51928;BME280;37953;52.806;18.270;2024-03-02T00:03:08;100138.31;;;10.05;100.00
51928;BME280;37953;52.806;18.270;2024-03-02T00:05:42;100148.72;;;10.05;100.00
51928;BME280;37953;52.806;18.270;2024-03-02T00:08:08;100135.72;;;10.03;100.00
51928;BME280;37953;52.806;18.270;2024-03-02T00:10:38;100141.78;;;10.02;100.00
51928;BME280;37953;52.806;18.270;2024-03-02T00:13:07;100134.00;;;10.02;100.00
51928;BME280;37953;52.806;18.270;2024-03-02T00:15:39;100134.84;;;10.01;100.00
51928;BME280;37953;52.806;18.270;2024-03-02T00:18:08;100131.41;;;10.01;100.00
51928;BME280;37953;52.806;18.270;2024-03-02T00:20:36;100138.31;;;9.98;100.00
51928;BME280;37953;52.806;18.270;2024-03-02T00:25:27;100127.97;;;9.97;100.00
51928;BME280;37953;52.806;18.270;2024-03-02T00:27:53;100121.03;;;9.96;100.00
51928;BME280;37953;52.806;18.270;2024-03-02T00:32:57;100123.63;;;9.94;100.00
51928;BME280;37953;52.806;18.270;2024-03-02T00:35:22;100127.09;;;9.93;100.00
51928;BME280;37953;52.806;18.270;2024-03-02T00:37:49;100125.34;;;9.92;100.00
51928;BME280;37953;52.806;18.270;2024-03-02T00:40:14;100124.50;;;9.92;100.00
51928;BME280;37953;52.806;18.270;2024-03-02T00:42:42;100134.00;;;9.91;100.00
51928;BME280;37953;52.806;18.270;2024-03-02T00:45:07;100133.16;;;9.91;100.00
51928;BME280;37953;52.806;18.270;2024-03-02T00:47:38;100134.00;;;9.90;100.00
51928;BME280;37953;52.806;18.270;2024-03-02T00:50:03;100126.22;;;9.88;100.00
51928;BME280;37953;52.806;18.270;2024-03-02T00:52:31;100126.22;;;9.88;100.00
51928;BME280;37953;52.806;18.270;2024-03-02T00:54:58;100122.75;;;9.86;100.00
51928;BME280;37953;52.806;18.270;2024-03-02T00:57:24;100128.84;;;9.87;100.00
51928;BME280;37953;52.806;18.270;2024-03-02T00:59:51;100122.78;;;9.85;100.00
51928;BME280;37953;52.806;18.270;2024-03-02T01:02:20;100115.84;;;9.84;100.00
51928;BME280;37953;52.806;18.270;2024-03-02T01:04:46;100110.66;;;9.84;100.00
51928;BME280;37953;52.806;18.270;2024-03-02T01:07:13;100092.50;;;9.82;100.00
51928;BME280;37953;52.806;18.270;2024-03-02T01:09:38;100093.38;;;9.81;100.00
51928;BME280;37953;52.806;18.270;2024-03-02T01:12:04;100097.69;;;9.81;100.00
51928;BME280;37953;52.806;18.270;2024-03-02T01:14:30;100085.56;;;9.79;100.00
51928;BME280;37953;52.806;18.270;2024-03-02T01:16:56;100084.72;;;9.79;100.00
51928;BME280;37953;52.806;18.270;2024-03-02T01:19:22;100081.25;;;9.78;100.00
51928;BME280;37953;52.806;18.270;2024-03-02T01:21:48;100080.41;;;9.78;100.00
51928;BME280;37953;52.806;18.270;2024-03-02T01:24:16;100078.66;;;9.77;100.00
51928;BME280;37953;52.806;18.270;2024-03-02T01:26:42;100088.19;;;9.76;100.00
51928;BME280;37953;52.806;18.270;2024-03-02T01:29:08;100085.59;;;9.76;100.00
51928;BME280;37953;52.806;18.270;2024-03-02T01:31:34;100091.63;;;9.75;100.00
51928;BME280;37953;52.806;18.270;2024-03-02T01:33:59;100098.56;;;9.75;100.00
51928;BME280;37953;52.806;18.270;2024-03-02T01:36:25;100095.09;;;9.74;100.00
51928;BME280;37953;52.806;18.270;2024-03-02T01:38:51;100093.34;;;9.73;100.00
51928;BME280;37953;52.806;18.270;2024-03-02T01:41:17;100087.31;;;9.73;100.00
51928;BME280;37953;52.806;18.270;2024-03-02T01:43:43;100084.72;;;9.71;100.00
51928;BME280;37953;52.806;18.270;2024-03-02T01:46:09;100082.09;;;9.71;100.00
51928;BME280;37953;52.806;18.270;2024-03-02T01:48:35;100077.78;;;9.69;100.00
51928;BME280;37953;52.806;18.270;2024-03-02T01:51:01;100072.63;;;9.67;100.00
51928;BME280;37953;52.806;18.270;2024-03-02T01:53:26;100072.63;;;9.67;100.00
51928;BME280;37953;52.806;18.270;2024-03-02T01:55:53;100070.03;;;9.64;100.00
51928;BME280;37953;52.806;18.270;2024-03-02T01:58:19;100079.53;;;9.62;100.00
51928;BME280;37953;52.806;18.270;2024-03-02T02:00:45;100080.41;;;9.61;100.00
51928;BME280;37953;52.806;18.270;2024-03-02T02:03:11;100077.81;;;9.60;100.00
51928;BME280;37953;52.806;18.270;2024-03-02T02:05:37;100076.09;;;9.57;100.00
51928;BME280;37953;52.806;18.270;2024-03-02T02:08:03;100081.25;;;9.55;100.00
51928;BME280;37953;52.806;18.270;2024-03-02T02:10:29;100086.44;;;9.54;100.00
51928;BME280;37953;52.806;18.270;2024-03-02T02:12:54;100075.19;;;9.52;100.00
51928;BME280;37953;52.806;18.270;2024-03-02T02:15:21;100083.00;;;9.50;100.00
51928;BME280;37953;52.806;18.270;2024-03-02T02:17:47;100076.91;;;9.50;100.00
51928;BME280;37953;52.806;18.270;2024-03-02T02:20:13;100079.53;;;9.48;100.00
51928;BME280;37953;52.806;18.270;2024-03-02T02:22:39;100070.88;;;9.46;100.00
51928;BME280;37953;52.806;18.270;2024-03-02T02:25:05;100064.84;;;9.44;100.00
51928;BME280;37953;52.806;18.270;2024-03-02T02:27:31;100057.91;;;9.42;100.00
51928;BME280;37953;52.806;18.270;2024-03-02T02:29:57;100061.38;;;9.41;100.00
51928;BME280;37953;52.806;18.270;2024-03-02T02:32:23;100065.69;;;9.38;100.00
51928;BME280;37953;52.806;18.270;2024-03-02T02:34:52;100072.59;;;9.36;100.00
51928;BME280;37953;52.806;18.270;2024-03-02T02:37:17;100082.09;;;9.36;100.00
51928;BME280;37953;52.806;18.270;2024-03-02T02:39:43;100086.44;;;9.34;100.00
51928;BME280;37953;52.806;18.270;2024-03-02T02:42:09;100089.88;;;9.33;100.00
51928;BME280;37953;52.806;18.270;2024-03-02T02:44:35;100087.28;;;9.33;100.00
51928;BME280;37953;52.806;18.270;2024-03-02T02:47:04;100091.59;;;9.31;100.00
51928;BME280;37953;52.806;18.270;2024-03-02T02:49:31;100094.19;;;9.29;100.00
51928;BME280;37953;52.806;18.270;2024-03-02T02:51:56;100078.63;;;9.28;100.00
51928;BME280;37953;52.806;18.270;2024-03-02T02:54:22;100083.81;;;9.28;100.00
51928;BME280;37953;52.806;18.270;2024-03-02T02:56:48;100087.28;;;9.25;100.00
51928;BME280;37953;52.806;18.270;2024-03-02T02:59:14;100086.38;;;9.25;100.00
51928;BME280;37953;52.806;18.270;2024-03-02T03:01:40;100079.50;;;9.24;100.00
51928;BME280;37953;52.806;18.270;2024-03-02T03:04:06;100083.81;;;9.22;100.00
51928;BME280;37953;52.806;18.270;2024-03-02T03:06:31;100085.53;;;9.20;100.00
51928;BME280;37953;52.806;18.270;2024-03-02T03:08:57;100085.50;;;9.18;100.00
51928;BME280;37953;52.806;18.270;2024-03-02T03:11:23;100086.38;;;9.15;100.00
51928;BME280;37953;52.806;18.270;2024-03-02T03:13:50;100086.38;;;9.14;100.00
51928;BME280;37953;52.806;18.270;2024-03-02T03:16:16;100082.06;;;9.13;100.00
51928;BME280;37953;52.806;18.270;2024-03-02T03:18:42;100079.47;;;9.11;100.00
51928;BME280;37953;52.806;18.270;2024-03-02T03:21:08;100080.34;;;9.10;100.00
51928;BME280;37953;52.806;18.270;2024-03-02T03:23:34;100083.78;;;9.09;100.00
51928;BME280;37953;52.806;18.270;2024-03-02T03:26:00;100076.88;;;9.08;100.00
51928;BME280;37953;52.806;18.270;2024-03-02T03:28:26;100073.41;;;9.06;100.00
51928;BME280;37953;52.806;18.270;2024-03-02T03:30:52;100065.63;;;9.08;100.00
51928;BME280;37953;52.806;18.270;2024-03-02T03:33:18;100064.75;;;9.07;100.00
51928;BME280;37953;52.806;18.270;2024-03-02T03:35:44;100056.13;;;9.07;100.00
51928;BME280;37953;52.806;18.270;2024-03-02T03:38:10;100053.56;;;9.08;100.00
51928;BME280;37953;52.806;18.270;2024-03-02T03:40:35;100044.03;;;9.07;100.00
51928;BME280;37953;52.806;18.270;2024-03-02T03:43:01;100042.28;;;9.08;100.00
51928;BME280;37953;52.806;18.270;2024-03-02T03:45:27;100048.34;;;9.07;100.00
51928;BME280;37953;52.806;18.270;2024-03-02T03:47:53;100042.31;;;9.06;100.00
51928;BME280;37953;52.806;18.270;2024-03-02T03:50:19;100039.72;;;9.06;100.00
51928;BME280;37953;52.806;18.270;2024-03-02T03:52:46;100040.59;;;9.07;100.00
51928;BME280;37953;52.806;18.270;2024-03-02T03:55:11;100038.00;;;9.07;100.00
51928;BME280;37953;52.806;18.270;2024-03-02T03:57:37;100038.00;;;9.08;100.00
51928;BME280;37953;52.806;18.270;2024-03-02T04:00:03;100040.56;;;9.10;100.00
51928;BME280;37953;52.806;18.270;2024-03-02T04:02:30;100030.22;;;9.10;100.00
51928;BME280;37953;52.806;18.270;2024-03-02T04:04:55;100046.66;;;9.10;100.00
51928;BME280;37953;52.806;18.270;2024-03-02T04:07:21;100045.78;;;9.11;100.00
51928;BME280;37953;52.806;18.270;2024-03-02T04:09:47;100035.41;;;9.11;100.00
51928;BME280;37953;52.806;18.270;2024-03-02T04:12:13;100033.69;;;9.10;100.00
51928;BME280;37953;52.806;18.270;2024-03-02T04:14:39;100022.44;;;9.10;100.00
51928;BME280;37953;52.806;18.270;2024-03-02T04:17:08;100031.09;;;9.10;100.00
51928;BME280;37953;52.806;18.270;2024-03-02T04:19:33;100027.63;;;9.10;100.00
51928;BME280;37953;52.806;18.270;2024-03-02T04:22:00;100030.22;;;9.10;100.00
51928;BME280;37953;52.806;18.270;2024-03-02T04:24:25;100019.00;;;9.09;100.00
51928;BME280;37953;52.806;18.270;2024-03-02T04:26:56;100022.44;;;9.10;100.00
51928;BME280;37953;52.806;18.270;2024-03-02T04:29:22;100030.22;;;9.10;100.00
51928;BME280;37953;52.806;18.270;2024-03-02T04:31:48;100031.09;;;9.09;100.00
51928;BME280;37953;52.806;18.270;2024-03-02T04:34:13;100026.75;;;9.08;100.00
51928;BME280;37953;52.806;18.270;2024-03-02T04:36:39;100029.34;;;9.08;100.00
51928;BME280;37953;52.806;18.270;2024-03-02T04:39:05;100034.53;;;9.08;100.00
51928;BME280;37953;52.806;18.270;2024-03-02T04:41:35;100044.91;;;9.06;100.00
51928;BME280;37953;52.806;18.270;2024-03-02T04:44:01;100042.31;;;9.06;100.00
51928;BME280;37953;52.806;18.270;2024-03-02T04:46:27;100052.66;;;9.05;100.00
51928;BME280;37953;52.806;18.270;2024-03-02T04:48:54;100052.66;;;9.05;100.00
51928;BME280;37953;52.806;18.270;2024-03-02T04:51:22;100064.78;;;9.04;100.00
51928;BME280;37953;52.806;18.270;2024-03-02T04:53:48;100063.88;;;9.04;100.00
51928;BME280;37953;52.806;18.270;2024-03-02T04:56:14;100064.75;;;9.03;100.00
51928;BME280;37953;52.806;18.270;2024-03-02T04:59:06;100076.00;;;9.02;100.00
51928;BME280;37953;52.806;18.270;2024-03-02T05:01:32;100068.22;;;9.02;100.00
51928;BME280;37953;52.806;18.270;2024-03-02T05:03:59;100069.09;;;9.02;100.00
51928;BME280;37953;52.806;18.270;2024-03-02T05:06:25;100075.13;;;9.04;100.00
51928;BME280;37953;52.806;18.270;2024-03-02T05:08:51;100072.53;;;9.03;100.00
51928;BME280;37953;52.806;18.270;2024-03-02T05:11:17;100084.63;;;9.02;100.00
51928;BME280;37953;52.806;18.270;2024-03-02T05:14:14;100075.97;;;9.03;100.00
51928;BME280;37953;52.806;18.270;2024-03-02T05:16:40;100094.97;;;9.04;100.00
51928;BME280;37953;52.806;18.270;2024-03-02T05:19:07;100096.72;;;9.05;100.00
51928;BME280;37953;52.806;18.270;2024-03-02T05:21:33;100094.13;;;9.05;100.00
51928;BME280;37953;52.806;18.270;2024-03-02T05:23:59;100087.22;;;9.05;100.00
51928;BME280;37953;52.806;18.270;2024-03-02T05:26:25;100083.75;;;9.05;100.00
51928;BME280;37953;52.806;18.270;2024-03-02T05:28:51;100096.72;;;9.05;100.00
51928;BME280;37953;52.806;18.270;2024-03-02T05:31:17;100094.13;;;9.06;100.00
51928;BME280;37953;52.806;18.270;2024-03-02T05:33:43;100104.50;;;9.06;100.00
51928;BME280;37953;52.806;18.270;2024-03-02T05:36:09;100103.63;;;9.07;100.00
51928;BME280;37953;52.806;18.270;2024-03-02T05:38:34;100095.00;;;9.07;100.00
51928;BME280;37953;52.806;18.270;2024-03-02T05:41:01;100095.84;;;9.07;100.00
51928;BME280;37953;52.806;18.270;2024-03-02T05:43:26;100103.66;;;9.09;100.00
51928;BME280;37953;52.806;18.270;2024-03-02T05:45:52;100103.63;;;9.07;100.00
51928;BME280;37953;52.806;18.270;2024-03-02T05:48:18;100102.78;;;9.08;100.00
51928;BME280;37953;52.806;18.270;2024-03-02T05:50:44;100103.63;;;9.07;100.00
51928;BME280;37953;52.806;18.270;2024-03-02T05:53:10;100101.91;;;9.08;100.00
51928;BME280;37953;52.806;18.270;2024-03-02T05:55:36;100101.03;;;9.07;100.00
51928;BME280;37953;52.806;18.270;2024-03-02T05:58:02;100107.06;;;9.08;100.00
51928;BME280;37953;52.806;18.270;2024-03-02T06:00:46;100102.78;;;9.08;100.00
51928;BME280;37953;52.806;18.270;2024-03-02T06:03:12;100105.38;;;9.08;100.00
51928;BME280;37953;52.806;18.270;2024-03-02T06:05:44;100099.31;;;9.08;100.00
51928;BME280;37953;52.806;18.270;2024-03-02T06:08:19;100102.78;;;9.08;100.00
51928;BME280;37953;52.806;18.270;2024-03-02T06:10:45;100101.06;;;9.09;100.00
51928;BME280;37953;52.806;18.270;2024-03-02T06:13:11;100102.75;;;9.10;100.00
51928;BME280;37953;52.806;18.270;2024-03-02T06:15:37;100102.78;;;9.08;100.00
51928;BME280;37953;52.806;18.270;2024-03-02T06:18:03;100107.09;;;9.09;100.00
51928;BME280;37953;52.806;18.270;2024-03-02T06:20:29;100118.34;;;9.08;100.00
51928;BME280;37953;52.806;18.270;2024-03-02T06:22:57;100112.28;;;9.09;100.00
51928;BME280;37953;52.806;18.270;2024-03-02T06:25:23;100107.09;;;9.09;100.00
51928;BME280;37953;52.806;18.270;2024-03-02T06:27:49;100104.50;;;9.09;100.00
51928;BME280;37953;52.806;18.270;2024-03-02T06:30:15;100100.19;;;9.10;100.00
51928;BME280;37953;52.806;18.270;2024-03-02T06:32:41;100102.75;;;9.10;100.00
51928;BME280;37953;52.806;18.270;2024-03-02T06:35:07;100100.19;;;9.10;100.00
51928;BME280;37953;52.806;18.270;2024-03-02T06:37:36;100090.69;;;9.10;100.00
51928;BME280;37953;52.806;18.270;2024-03-02T06:40:02;100101.91;;;9.11;100.00
51928;BME280;37953;52.806;18.270;2024-03-02T06:42:28;100102.75;;;9.10;100.00
51928;BME280;37953;52.806;18.270;2024-03-02T06:44:59;100111.44;;;9.10;100.00
51928;BME280;37953;52.806;18.270;2024-03-02T06:47:24;100125.25;;;9.11;100.00
51928;BME280;37953;52.806;18.270;2024-03-02T06:49:59;100126.97;;;9.12;100.00
51928;BME280;37953;52.806;18.270;2024-03-02T06:52:25;100122.66;;;9.11;100.00
51928;BME280;37953;52.806;18.270;2024-03-02T06:54:51;100126.09;;;9.11;100.00
51928;BME280;37953;52.806;18.270;2024-03-02T06:57:17;100131.31;;;9.13;100.00
51928;BME280;37953;52.806;18.270;2024-03-02T06:59:45;100118.34;;;9.13;100.00
51928;BME280;37953;52.806;18.270;2024-03-02T07:02:19;100116.59;;;9.13;100.00
51928;BME280;37953;52.806;18.270;2024-03-02T07:04:46;100120.94;;;9.13;100.00
51928;BME280;37953;52.806;18.270;2024-03-02T07:07:12;100128.72;;;9.14;100.00
51928;BME280;37953;52.806;18.270;2024-03-02T07:09:38;100133.03;;;9.15;100.00
51928;BME280;37953;52.806;18.270;2024-03-02T07:12:04;100144.25;;;9.16;100.00
51928;BME280;37953;52.806;18.270;2024-03-02T07:14:30;100139.06;;;9.17;100.00
51928;BME280;37953;52.806;18.270;2024-03-02T07:17:14;100142.53;;;9.18;100.00
51928;BME280;37953;52.806;18.270;2024-03-02T07:19:40;100141.69;;;9.19;100.00
51928;BME280;37953;52.806;18.270;2024-03-02T07:22:06;100139.94;;;9.20;100.00
51928;BME280;37953;52.806;18.270;2024-03-02T07:24:40;100140.81;;;9.22;100.00
51928;BME280;37953;52.806;18.270;2024-03-02T07:27:11;100129.56;;;9.23;100.00
51928;BME280;37953;52.806;18.270;2024-03-02T07:29:45;100132.19;;;9.26;100.00
51928;BME280;37953;52.806;18.270;2024-03-02T07:32:11;100139.09;;;9.28;100.00
51928;BME280;37953;52.806;18.270;2024-03-02T07:34:38;100141.72;;;9.31;100.00
51928;BME280;37953;52.806;18.270;2024-03-02T07:37:03;100147.78;;;9.36;100.00
51928;BME280;37953;52.806;18.270;2024-03-02T07:39:29;100156.44;;;9.40;100.00
51928;BME280;37953;52.806;18.270;2024-03-02T07:41:55;100160.75;;;9.43;100.00
51928;BME280;37953;52.806;18.270;2024-03-02T07:44:21;100165.06;;;9.45;100.00
51928;BME280;37953;52.806;18.270;2024-03-02T07:46:48;100165.94;;;9.47;100.00
51928;BME280;37953;52.806;18.270;2024-03-02T07:49:20;100159.03;;;9.49;100.00
51928;BME280;37953;52.806;18.270;2024-03-02T07:51:51;100165.94;;;9.52;100.00
51928;BME280;37953;52.806;18.270;2024-03-02T07:54:17;100166.81;;;9.52;100.00
51928;BME280;37953;52.806;18.270;2024-03-02T07:56:42;100170.28;;;9.53;100.00
51928;BME280;37953;52.806;18.270;2024-03-02T07:59:08;100159.91;;;9.54;100.00
51928;BME280;37953;52.806;18.270;2024-03-02T08:01:34;100166.84;;;9.55;100.00
51928;BME280;37953;52.806;18.270;2024-03-02T08:04:00;100169.44;;;9.55;100.00
51928;BME280;37953;52.806;18.270;2024-03-02T08:06:27;100165.09;;;9.56;100.00
51928;BME280;37953;52.806;18.270;2024-03-02T08:08:59;100167.69;;;9.57;100.00
51928;BME280;37953;52.806;18.270;2024-03-02T08:11:41;100156.47;;;9.60;100.00
51928;BME280;37953;52.806;18.270;2024-03-02T08:14:07;100156.47;;;9.62;100.00
51928;BME280;37953;52.806;18.270;2024-03-02T08:16:33;100157.34;;;9.64;100.00
51928;BME280;37953;52.806;18.270;2024-03-02T08:18:59;100164.25;;;9.66;100.00
51928;BME280;37953;52.806;18.270;2024-03-02T08:21:26;100172.91;;;9.67;100.00
51928;BME280;37953;52.806;18.270;2024-03-02T08:23:52;100183.28;;;9.70;100.00
51928;BME280;37953;52.806;18.270;2024-03-02T08:26:17;100185.03;;;9.72;100.00
51928;BME280;37953;52.806;18.270;2024-03-02T08:28:43;100176.34;;;9.73;100.00
51928;BME280;37953;52.806;18.270;2024-03-02T08:31:09;100176.38;;;9.75;100.00
51928;BME280;37953;52.806;18.270;2024-03-02T08:33:35;100172.03;;;9.75;100.00
51928;BME280;37953;52.806;18.270;2024-03-02T08:36:01;100172.03;;;9.75;100.00
51928;BME280;37953;52.806;18.270;2024-03-02T08:38:28;100179.81;;;9.75;100.00
51928;BME280;37953;52.806;18.270;2024-03-02T08:40:54;100176.38;;;9.75;100.00
51928;BME280;37953;52.806;18.270;2024-03-02T08:43:20;100177.25;;;9.74;100.00
51928;BME280;37953;52.806;18.270;2024-03-02T08:45:48;100175.50;;;9.74;100.00
51928;BME280;37953;52.806;18.270;2024-03-02T08:48:14;100179.84;;;9.74;100.00
51928;BME280;37953;52.806;18.270;2024-03-02T08:50:40;100190.19;;;9.75;100.00
51928;BME280;37953;52.806;18.270;2024-03-02T08:53:06;100180.69;;;9.77;100.00
51928;BME280;37953;52.806;18.270;2024-03-02T08:55:32;100191.09;;;9.81;100.00
51928;BME280;37953;52.806;18.270;2024-03-02T08:57:58;100181.56;;;9.81;100.00
51928;BME280;37953;52.806;18.270;2024-03-02T09:00:23;100184.19;;;9.83;100.00
51928;BME280;37953;52.806;18.270;2024-03-02T09:02:50;100206.66;;;9.84;100.00
51928;BME280;37953;52.806;18.270;2024-03-02T09:05:16;100195.41;;;9.85;100.00
51928;BME280;37953;52.806;18.270;2024-03-02T09:07:42;100197.13;;;9.86;100.00
51928;BME280;37953;52.806;18.270;2024-03-02T09:10:08;100196.28;;;9.87;100.00
51928;BME280;37953;52.806;18.270;2024-03-02T09:12:35;100193.66;;;9.88;100.00
51928;BME280;37953;52.806;18.270;2024-03-02T09:15:01;100191.94;;;9.90;100.00
51928;BME280;37953;52.806;18.270;2024-03-02T09:17:27;100191.09;;;9.93;100.00
51928;BME280;37953;52.806;18.270;2024-03-02T09:19:53;100198.88;;;9.96;100.00
51928;BME280;37953;52.806;18.270;2024-03-02T09:22:20;100195.41;;;9.98;100.00
51928;BME280;37953;52.806;18.270;2024-03-02T09:24:46;100204.94;;;10.03;100.00
51928;BME280;37953;52.806;18.270;2024-03-02T09:27:12;100214.44;;;10.05;100.00
51928;BME280;37953;52.806;18.270;2024-03-02T09:29:38;100195.44;;;10.08;100.00
51928;BME280;37953;52.806;18.270;2024-03-02T09:32:08;100197.16;;;10.10;100.00
51928;BME280;37953;52.806;18.270;2024-03-02T09:34:34;100210.16;;;10.12;100.00
51928;BME280;37953;52.806;18.270;2024-03-02T09:37:02;100207.53;;;10.13;100.00
51928;BME280;37953;52.806;18.270;2024-03-02T09:39:29;100204.09;;;10.16;100.00
51928;BME280;37953;52.806;18.270;2024-03-02T09:41:55;100195.44;;;10.18;100.00
51928;BME280;37953;52.806;18.270;2024-03-02T09:44:21;100191.97;;;10.21;100.00
51928;BME280;37953;52.806;18.270;2024-03-02T09:46:51;100202.34;;;10.24;100.00
51928;BME280;37953;52.806;18.270;2024-03-02T09:49:17;100196.31;;;10.27;100.00
51928;BME280;37953;52.806;18.270;2024-03-02T09:51:49;100196.31;;;10.30;100.00
51928;BME280;37953;52.806;18.270;2024-03-02T09:54:17;100198.06;;;10.31;100.00
51928;BME280;37953;52.806;18.270;2024-03-02T09:56:44;100205.84;;;10.34;100.00
51928;BME280;37953;52.806;18.270;2024-03-02T09:59:17;100191.13;;;10.36;100.00
51928;BME280;37953;52.806;18.270;2024-03-02T10:04:32;100186.78;;;10.41;100.00
51928;BME280;37953;52.806;18.270;2024-03-02T10:07:11;100186.81;;;10.46;100.00
51928;BME280;37953;52.806;18.270;2024-03-02T10:09:38;100187.66;;;10.49;100.00
51928;BME280;37953;52.806;18.270;2024-03-02T10:12:05;100186.78;;;10.53;100.00
51928;BME280;37953;52.806;18.270;2024-03-02T10:14:43;100187.66;;;10.58;100.00
51928;BME280;37953;52.806;18.270;2024-03-02T10:17:11;100180.72;;;10.61;100.00
51928;BME280;37953;52.806;18.270;2024-03-02T10:19:37;100176.38;;;10.63;100.00
51928;BME280;37953;52.806;18.270;2024-03-02T10:22:06;100172.91;;;10.65;100.00
51928;BME280;37953;52.806;18.270;2024-03-02T10:24:36;100171.19;;;10.67;100.00
51928;BME280;37953;52.806;18.270;2024-03-02T10:27:06;100178.94;;;10.69;100.00
51928;BME280;37953;52.806;18.270;2024-03-02T10:29:32;100174.63;;;10.69;100.00
51928;BME280;37953;52.806;18.270;2024-03-02T10:31:58;100178.09;;;10.71;100.00
51928;BME280;37953;52.806;18.270;2024-03-02T10:34:27;100169.41;;;10.71;100.00
51928;BME280;37953;52.806;18.270;2024-03-02T10:36:53;100169.41;;;10.71;100.00
51928;BME280;37953;52.806;18.270;2024-03-02T10:39:20;100166.81;;;10.74;100.00
51928;BME280;37953;52.806;18.270;2024-03-02T10:41:47;100184.13;;;10.76;100.00
51928;BME280;37953;52.806;18.270;2024-03-02T10:44:24;100176.34;;;10.78;100.00
51928;BME280;37953;52.806;18.270;2024-03-02T10:52:52;100172.00;;;10.80;100.00
51928;BME280;37953;52.806;18.270;2024-03-02T10:55:18;100177.19;;;10.80;100.00
51928;BME280;37953;52.806;18.270;2024-03-02T11:00:11;100174.59;;;10.80;100.00
51928;BME280;37953;52.806;18.270;2024-03-02T11:02:42;100172.00;;;10.82;100.00
51928;BME280;37953;52.806;18.270;2024-03-02T11:05:09;100160.72;;;10.84;100.00
51928;BME280;37953;52.806;18.270;2024-03-02T11:07:37;100159.84;;;10.87;100.00
51928;BME280;37953;52.806;18.270;2024-03-02T11:10:03;100159.84;;;10.88;100.00
51928;BME280;37953;52.806;18.270;2024-03-02T11:12:48;100162.44;;;10.91;100.00
51928;BME280;37953;52.806;18.270;2024-03-02T11:15:30;100159.81;;;10.96;100.00
51928;BME280;37953;52.806;18.270;2024-03-02T11:17:56;100159.81;;;10.99;100.00
51928;BME280;37953;52.806;18.270;2024-03-02T11:20:22;100152.00;;;11.04;100.00
51928;BME280;37953;52.806;18.270;2024-03-02T11:22:49;100146.75;;;11.07;100.00
51928;BME280;37953;52.806;18.270;2024-03-02T11:25:25;100146.78;;;11.11;100.00
51928;BME280;37953;52.806;18.270;2024-03-02T11:33:04;100141.50;;;11.27;100.00
51928;BME280;37953;52.806;18.270;2024-03-02T11:35:33;100138.84;;;11.30;100.00
51928;BME280;37953;52.806;18.270;2024-03-02T11:38:00;100135.38;;;11.35;100.00
51928;BME280;37953;52.806;18.270;2024-03-02T11:40:27;100129.28;;;11.39;100.00
51928;BME280;37953;52.806;18.270;2024-03-02T11:42:53;100135.28;;;11.45;100.00
51928;BME280;37953;52.806;18.270;2024-03-02T11:45:22;100140.50;;;11.48;100.00
51928;BME280;37953;52.806;18.270;2024-03-02T11:47:55;100141.31;;;11.53;100.00
51928;BME280;37953;52.806;18.270;2024-03-02T11:53:20;100141.28;;;11.62;100.00
51928;BME280;37953;52.806;18.270;2024-03-02T11:55:46;100142.97;;;11.66;100.00
51928;BME280;37953;52.806;18.270;2024-03-02T11:58:13;100143.81;;;11.71;100.00
51928;BME280;37953;52.806;18.270;2024-03-02T12:00:39;100133.34;;;11.74;100.00
51928;BME280;37953;52.806;18.270;2024-03-02T12:03:06;100146.38;;;11.77;100.00
51928;BME280;37953;52.806;18.270;2024-03-02T12:05:32;100138.53;;;11.80;100.00
51928;BME280;37953;52.806;18.270;2024-03-02T12:07:58;100135.06;;;11.81;100.00
51928;BME280;37953;52.806;18.270;2024-03-02T12:10:25;100136.78;;;11.82;100.00
51928;BME280;37953;52.806;18.270;2024-03-02T12:15:26;100143.69;;;11.85;100.00
51928;BME280;37953;52.806;18.270;2024-03-02T12:17:54;100136.75;;;11.86;100.00
51928;BME280;37953;52.806;18.270;2024-03-02T12:20:20;100136.72;;;11.87;100.00
51928;BME280;37953;52.806;18.270;2024-03-02T12:22:46;100140.22;;;11.89;100.00
51928;BME280;37953;52.806;18.270;2024-03-02T12:25:12;100144.56;;;11.90;100.00
51928;BME280;37953;52.806;18.270;2024-03-02T12:27:39;100141.91;;;11.93;100.00
51928;BME280;37953;52.806;18.270;2024-03-02T12:30:05;100141.06;;;11.94;100.00
51928;BME280;37953;52.806;18.270;2024-03-02T12:32:34;100139.31;;;11.96;100.00
51928;BME280;37953;52.806;18.270;2024-03-02T12:34:59;100141.88;;;11.98;100.00
51928;BME280;37953;52.806;18.270;2024-03-02T12:37:26;100146.22;;;11.99;100.00
51928;BME280;37953;52.806;18.270;2024-03-02T12:39:55;100140.13;;;12.00;100.00
51928;BME280;37953;52.806;18.270;2024-03-02T12:42:21;100139.28;;;12.01;100.00
51928;BME280;37953;52.806;18.270;2024-03-02T12:44:47;100137.53;;;12.00;100.00
51928;BME280;37953;52.806;18.270;2024-03-02T12:47:13;100135.81;;;12.00;100.00
51928;BME280;37953;52.806;18.270;2024-03-02T12:49:39;100135.81;;;12.00;100.00
51928;BME280;37953;52.806;18.270;2024-03-02T12:52:05;100132.31;;;12.01;100.00
51928;BME280;37953;52.806;18.270;2024-03-02T12:54:31;100147.94;;;12.03;100.00
51928;BME280;37953;52.806;18.270;2024-03-02T12:56:59;100140.97;;;12.05;100.00
51928;BME280;37953;52.806;18.270;2024-03-02T12:59:24;100134.88;;;12.06;100.00
51928;BME280;37953;52.806;18.270;2024-03-02T13:01:52;100136.63;;;12.07;100.00
51928;BME280;37953;52.806;18.270;2024-03-02T13:04:22;100135.72;;;12.10;100.00